Airfield :







YOU CAN JOIN US ON...

 
LOGIN :

Register | Disclaimer

   EN    FR    IT 

 









Legend :    VFR   Marginal VFR   IFR   Intensive IFR   Very Intensive IFR
Visi :
Ceiling :
>= 8 km
>= 3000ft
5 to 8 km
1000 to 3000 ft
1500m to 5 km
500 to 1000 ft
800 to 1500m
200 to 500 ft
< 800m
< 200 ft
Symbols :   Thunderstorms  Fog  Heavy snow  Heavy precipitations  Wind > 20 kt






- Airport Elevation : 352 ft


KAUG - Augusta State

CURRENT METAR :
  • 151153Z AUTO 24009KT 10SM CLR 03/M01 A2917 RMK AO2 SLP879 60000 70136 T00331006 10106 20033 51039

EXPIRED METARs :
  • 151053Z AUTO 24009G15KT 10SM CLR 04/00 A2913 RMK AO2 SLP868 T00390000
  • 151009Z AUTO 24008G16KT 10SM FEW025 SCT030 04/01 A2910 RMK AO2 T00440006
  • 150953Z AUTO 24010G20KT 10SM OVC028 04/01 A2909 RMK AO2 SLP854 T00440006
  • 150937Z AUTO 25009G19KT 10SM BKN027 OVC037 05/01 A2909 RMK AO2 T00500011

TAF KAUG
Valid from the 15 at 12:00 until the 16 at 12:00 UTC


151120Z 1512/1612 24010G18KT P6SM FEW050
FM151400 26013G23KT P6SM BKN050
FM151700 27020G29KT P6SM BKN050
FM160200 29014G24KT P6SM SKC
FM161000 28010KT P6SM SKC



MET'MAP, your aeronautical weather chart ! - Copyright ORBIFLY December 2007 - Disclaimer

ORBIFLY MET'MAP TEAM :

Programming & Development : Alexandra Zaïnal
Concept & original design : Baudouin d'Aumeries
Assistance for programming : Marc-Olivier Méhu
Technical & hardware support : Manuel Goepfert

Contact : metmap@orbifly.com




SOURCES & CREDITS :

   NOAA